New Waverly, Indiana
Current Conditions -  °F | °C
As of 10:58 AM on Thursday 27 Nov 2014 (Local Time) from KGUS Reporting Station
Light Snow Light Snow  
Wind Chill: 19°   Ceiling: 1900
Heat Index: 28°   Visibility: 4mi
Dew Point: 28°   Wind: 10mph
Humidity: 100%   Direction: 280°W
Pressure: 30.28"   Gusts: NA
Location:  40.76°N, 86.19°W
Report Text: KGUS 271558Z 28009KT 4SM -SN BR FEW008 SCT013 BKN019 BKN027 OVC034 M02/M02 A3028 RMK AO2A CIG 016V027 SLP267 P0000 T10201020
Loading
Personal Weather Stations






























Interactive Weather Map New forecast layout! Learn more

10-Day Weather Forecast

Advertisements
Track Severe Weather on mobile